createdAt,value
2022-12-06T00:04:48.788Z,4.10
2022-12-06T00:09:51.060Z,4.20
2022-12-06T00:14:53.355Z,4.20
2022-12-06T00:19:55.642Z,4.10
2022-12-06T00:24:57.912Z,4.20
2022-12-06T00:30:00.397Z,4.30
2022-12-06T00:35:03.365Z,4.40
2022-12-06T00:40:06.365Z,4.30
2022-12-06T00:45:09.127Z,4.30
2022-12-06T00:50:12.006Z,4.20
2022-12-06T00:55:14.302Z,4.20
2022-12-06T01:00:16.978Z,4.20
2022-12-06T01:05:19.581Z,4.10
2022-12-06T01:10:22.210Z,4.40
2022-12-06T01:15:24.461Z,4.50
2022-12-06T01:20:26.788Z,4.40
2022-12-06T01:25:35.737Z,4.40
2022-12-06T01:30:40.335Z,4.40
2022-12-06T01:35:43.064Z,4.30
2022-12-06T01:40:48.363Z,4.30
2022-12-06T01:45:50.711Z,4.30
2022-12-06T01:50:56.049Z,4.40
2022-12-06T01:55:58.489Z,4.40
2022-12-06T02:01:01.936Z,4.50
2022-12-06T02:06:07.276Z,4.40
2022-12-06T02:11:09.553Z,4.40
2022-12-06T02:16:20.260Z,4.40
2022-12-06T02:21:53.161Z,4.50
2022-12-06T02:27:18.536Z,4.40
2022-12-06T02:32:55.207Z,4.50
2022-12-06T02:38:08.868Z,4.50
2022-12-06T02:43:20.759Z,4.40
2022-12-06T02:48:25.871Z,4.40
2022-12-06T02:53:30.803Z,4.50
2022-12-06T02:58:37.197Z,4.40
2022-12-06T03:03:54.583Z,4.40
2022-12-06T03:09:06.358Z,4.40
2022-12-06T03:14:18.686Z,4.40
2022-12-06T03:19:23.452Z,4.60
2022-12-06T03:24:28.386Z,4.60
2022-12-06T03:29:33.365Z,4.70
2022-12-06T03:34:41.440Z,4.70
2022-12-06T03:39:49.972Z,4.70
2022-12-06T03:44:52.387Z,4.70
2022-12-06T03:49:58.889Z,4.70
2022-12-06T03:55:01.492Z,4.90
2022-12-06T04:00:06.122Z,4.70
2022-12-06T04:05:14.285Z,4.60
2022-12-06T04:10:16.630Z,4.50
2022-12-06T04:15:20.949Z,4.60
2022-12-06T04:20:24.036Z,4.70
2022-12-06T04:25:26.287Z,4.70
2022-12-06T04:30:47.207Z,4.70
2022-12-06T04:36:08.545Z,4.70
2022-12-06T04:41:11.920Z,4.70
2022-12-06T04:46:15.721Z,4.80
2022-12-06T04:51:20.148Z,4.70
2022-12-06T04:56:22.634Z,4.60
2022-12-06T05:01:24.985Z,4.70
2022-12-06T05:06:27.308Z,4.70
2022-12-06T05:11:29.631Z,4.70
2022-12-06T05:16:32.149Z,4.70
2022-12-06T05:21:34.522Z,4.80
2022-12-06T05:26:36.806Z,4.70
2022-12-06T05:31:39.126Z,4.80
2022-12-06T05:36:41.406Z,4.70
2022-12-06T05:41:43.625Z,4.70
2022-12-06T05:46:45.841Z,4.70
2022-12-06T05:51:48.123Z,4.70
2022-12-06T05:56:50.872Z,4.70
2022-12-06T06:01:53.158Z,4.70
2022-12-06T06:06:56.013Z,4.70
2022-12-06T06:11:58.319Z,4.80
2022-12-06T06:17:00.658Z,4.70
2022-12-06T06:22:02.889Z,4.70
2022-12-06T06:27:05.511Z,4.70
2022-12-06T06:32:07.776Z,4.60
2022-12-06T06:37:10.394Z,4.70
2022-12-06T06:42:12.744Z,4.60
2022-12-06T06:47:14.957Z,4.60
2022-12-06T06:52:17.312Z,4.50
2022-12-06T06:57:19.704Z,4.40
2022-12-06T07:02:22.570Z,4.50
2022-12-06T07:07:25.125Z,4.50
2022-12-06T07:12:27.386Z,4.70
2022-12-06T07:17:29.667Z,4.50
2022-12-06T07:22:31.888Z,4.50
2022-12-06T07:27:36.949Z,4.60
2022-12-06T07:32:39.728Z,4.60
2022-12-06T07:37:43.377Z,4.70
2022-12-06T07:43:04.524Z,4.70
2022-12-06T07:48:07.023Z,4.80
2022-12-06T07:53:09.304Z,4.80
2022-12-06T07:58:12.598Z,4.80
2022-12-06T08:03:14.901Z,4.70
2022-12-06T08:08:17.619Z,4.70
2022-12-06T08:13:20.489Z,4.70
2022-12-06T08:18:22.804Z,4.70
2022-12-06T08:23:30.651Z,4.70
2022-12-06T08:28:37.454Z,4.70
2022-12-06T08:33:40.312Z,4.90
2022-12-06T08:38:42.750Z,5.00
2022-12-06T08:43:48.438Z,5.00
2022-12-06T08:48:51.243Z,5.00
2022-12-06T08:53:54.350Z,5.00
2022-12-06T08:58:57.771Z,5.00
2022-12-06T09:04:00.948Z,5.00
2022-12-06T09:09:03.502Z,5.10
2022-12-06T09:14:07.455Z,5.00
2022-12-06T09:19:13.602Z,4.90
2022-12-06T09:24:17.549Z,5.00
2022-12-06T09:29:20.120Z,5.00
2022-12-06T09:34:22.416Z,4.90
2022-12-06T09:39:36.863Z,5.00
2022-12-06T09:44:57.001Z,5.00
2022-12-06T09:50:20.767Z,4.90
2022-12-06T09:56:01.478Z,4.90
2022-12-06T10:01:41.689Z,4.80
2022-12-06T10:06:49.894Z,4.70
2022-12-06T10:12:32.681Z,4.70
2022-12-06T10:17:57.224Z,4.60
2022-12-06T10:23:05.580Z,4.60
2022-12-06T10:28:12.655Z,4.70
2022-12-06T10:33:30.175Z,4.70
2022-12-06T10:38:49.806Z,4.70
2022-12-06T10:43:57.848Z,4.70
2022-12-06T10:49:03.187Z,4.70
2022-12-06T10:54:30.026Z,4.70
2022-12-06T10:59:38.242Z,4.70
2022-12-06T11:04:43.402Z,4.70
2022-12-06T11:09:52.461Z,4.70
2022-12-06T11:15:00.819Z,4.80
2022-12-06T11:20:26.018Z,4.80
2022-12-06T11:25:48.996Z,4.80
2022-12-06T11:30:54.469Z,4.90
2022-12-06T11:36:00.244Z,4.90
2022-12-06T11:41:04.328Z,4.80
2022-12-06T11:46:08.587Z,4.80
2022-12-06T11:51:17.557Z,4.80
2022-12-06T11:56:24.808Z,4.80
2022-12-06T12:01:44.940Z,4.70
2022-12-06T12:06:47.642Z,4.50
2022-12-06T12:11:59.762Z,4.50
2022-12-06T12:17:04.086Z,4.50
2022-12-06T12:22:24.157Z,4.40
2022-12-06T12:27:45.967Z,4.50
2022-12-06T12:32:50.993Z,4.50
2022-12-06T12:37:58.833Z,4.50
2022-12-06T12:43:07.359Z,4.60
2022-12-06T12:48:25.311Z,4.60
2022-12-06T12:53:39.791Z,4.50
2022-12-06T12:58:44.067Z,4.40
2022-12-06T13:03:51.822Z,4.40
2022-12-06T13:08:59.253Z,4.40
2022-12-06T13:14:03.219Z,4.50
2022-12-06T13:19:05.685Z,4.50
2022-12-06T13:24:18.370Z,4.40
2022-12-06T13:29:36.378Z,4.40
2022-12-06T13:34:47.029Z,4.40
2022-12-06T13:39:50.230Z,4.30
2022-12-06T13:45:02.203Z,4.20
2022-12-06T13:50:24.357Z,4.20
2022-12-06T13:55:26.727Z,4.10
2022-12-06T14:00:31.394Z,4.10
2022-12-06T14:06:03.403Z,4.10
2022-12-06T14:11:30.701Z,4.20
2022-12-06T14:16:46.432Z,4.10
2022-12-06T14:21:55.844Z,4.10
2022-12-06T14:27:15.883Z,4.10
2022-12-06T14:32:18.132Z,4.10
2022-12-06T14:37:22.255Z,4.10
2022-12-06T14:42:43.342Z,4.00
2022-12-06T14:47:45.948Z,4.00
2022-12-06T14:52:57.639Z,4.00
2022-12-06T14:58:02.803Z,4.10
2022-12-06T15:03:07.953Z,4.10
2022-12-06T15:08:28.514Z,4.00
2022-12-06T15:13:30.929Z,4.00
2022-12-06T15:18:40.674Z,4.00
2022-12-06T15:23:54.536Z,4.00
2022-12-06T15:28:57.006Z,3.90
2022-12-06T15:33:59.367Z,3.90
2022-12-06T15:39:01.673Z,3.90
2022-12-06T15:44:04.263Z,3.90
2022-12-06T15:49:06.692Z,3.70
2022-12-06T15:54:15.264Z,3.70
2022-12-06T15:59:18.536Z,3.70
2022-12-06T16:04:23.658Z,3.70
2022-12-06T16:09:26.187Z,3.70
2022-12-06T16:14:28.513Z,3.70
2022-12-06T16:19:50.814Z,3.70
2022-12-06T16:24:54.182Z,3.70
2022-12-06T16:29:56.638Z,3.60
2022-12-06T16:34:59.413Z,3.50
2022-12-06T16:40:02.130Z,3.50
2022-12-06T16:45:04.913Z,3.50
2022-12-06T16:50:11.562Z,3.40
2022-12-06T16:55:13.937Z,3.40
2022-12-06T17:00:16.659Z,3.50
2022-12-06T17:05:26.867Z,3.40
2022-12-06T17:10:29.767Z,3.40
2022-12-06T17:15:32.103Z,3.30
2022-12-06T17:20:34.407Z,3.30
2022-12-06T17:25:36.709Z,3.30
2022-12-06T17:30:39.842Z,3.30
2022-12-06T17:35:42.088Z,3.30
2022-12-06T17:40:44.420Z,3.30
2022-12-06T17:45:46.831Z,3.20
2022-12-06T17:50:49.158Z,3.10
2022-12-06T17:55:51.543Z,3.20
2022-12-06T18:00:54.045Z,3.20
2022-12-06T18:05:58.587Z,3.30
2022-12-06T18:11:01.448Z,3.20
2022-12-06T18:16:34.538Z,3.20
2022-12-06T18:21:37.505Z,3.10
2022-12-06T18:26:39.814Z,3.10
2022-12-06T18:31:42.212Z,3.10
2022-12-06T18:36:44.515Z,3.10
2022-12-06T18:41:46.961Z,3.10
2022-12-06T18:46:49.283Z,3.20
2022-12-06T18:51:51.609Z,3.10
2022-12-06T18:56:53.891Z,3.20
2022-12-06T19:01:56.657Z,3.20
2022-12-06T19:06:59.031Z,3.20
2022-12-06T19:12:03.147Z,3.20
2022-12-06T19:17:05.475Z,3.20
2022-12-06T19:22:08.802Z,3.10
2022-12-06T19:27:11.152Z,3.00
2022-12-06T19:32:13.441Z,3.00
2022-12-06T19:37:15.821Z,3.00
2022-12-06T19:42:56.493Z,3.00
2022-12-06T19:47:58.717Z,3.00
2022-12-06T19:53:00.995Z,2.90
2022-12-06T19:58:03.278Z,3.00
2022-12-06T20:03:05.574Z,3.00
2022-12-06T20:08:07.991Z,2.90
2022-12-06T20:13:11.102Z,2.90
2022-12-06T20:18:13.340Z,3.00
2022-12-06T20:23:15.621Z,3.00
2022-12-06T20:28:18.333Z,3.00
2022-12-06T20:33:20.680Z,2.90
2022-12-06T20:38:23.009Z,3.00
2022-12-06T20:43:25.242Z,3.00
2022-12-06T20:48:27.534Z,3.00
2022-12-06T20:53:30.418Z,3.00
2022-12-06T20:58:33.023Z,3.00
2022-12-06T21:03:35.299Z,3.00
2022-12-06T21:08:38.440Z,2.80
2022-12-06T21:13:42.153Z,2.90
2022-12-06T21:18:45.055Z,2.80
2022-12-06T21:23:47.300Z,2.90
2022-12-06T21:28:52.684Z,2.90
2022-12-06T21:33:55.711Z,2.90
2022-12-06T21:38:58.596Z,3.00
2022-12-06T21:44:01.067Z,2.90
2022-12-06T21:49:03.333Z,2.90
2022-12-06T21:54:05.674Z,3.00
2022-12-06T21:59:07.981Z,3.00
2022-12-06T22:04:10.247Z,3.00
2022-12-06T22:09:12.512Z,2.90
2022-12-06T22:14:15.538Z,2.90
2022-12-06T22:19:18.259Z,3.00
2022-12-06T22:24:20.688Z,3.00
2022-12-06T22:29:23.061Z,3.00
2022-12-06T22:34:25.504Z,3.00
2022-12-06T22:39:27.969Z,3.00
2022-12-06T22:44:30.255Z,2.90
2022-12-06T22:49:32.508Z,2.90
2022-12-06T22:54:34.883Z,2.90
2022-12-06T22:59:37.164Z,2.90
2022-12-06T23:04:39.432Z,2.90
2022-12-06T23:09:41.671Z,3.00
2022-12-06T23:14:44.222Z,3.00
2022-12-06T23:19:46.519Z,3.00
2022-12-06T23:24:49.840Z,3.00
2022-12-06T23:29:52.113Z,3.00
2022-12-06T23:34:54.361Z,3.00
2022-12-06T23:39:56.604Z,3.00
2022-12-06T23:44:58.819Z,3.10
2022-12-06T23:50:01.224Z,3.10
2022-12-06T23:55:03.811Z,3.10
